Terminal Aerodrome Forecast
Issued by NWS

Home | Current Version | Previous Version | Text Only | Print | Product List | Glossary On
Versions: 1 2 3 4 5 6 7 8 9 10 11 12 13 14 15 16 17 18 19 20 21 22
670
FTUS42 KFFC 210545
TAFPDK
TAF
KPDK 210545Z 2106/2206 13004KT P6SM SCT030 BKN045
     FM210800 14005KT 6SM BR SCT007 BKN015
     FM211100 14005KT 1SM BR OVC004
     FM211600 15006KT 5SM BR BKN007
     FM211800 16007KT P6SM BKN025
     FM212200 17008KT P6SM SCT025 BKN045
     FM220300 13005KT P6SM BKN030=

USA.gov is the U.S. government's official web portal to all federal, state and local government web resources and services.